sensor_id;sensor_type;location;lat;lon;timestamp;pressure;altitude;pressure_sealevel;temperature;humidity
73105;BME280;61296;50.526;30.792;2024-01-25T00:07:56;98385.94;;;0.25;100.00
73105;BME280;61296;50.526;30.792;2024-01-25T00:23:29;98382.91;;;0.27;100.00
73105;BME280;61296;50.526;30.792;2024-01-25T00:39:05;98367.72;;;0.35;100.00
73105;BME280;61296;50.526;30.792;2024-01-25T00:54:39;98217.38;;;-0.40;100.00
73105;BME280;61296;50.526;30.792;2024-01-25T01:10:11;98334.72;;;0.53;100.00
73105;BME280;61296;50.526;30.792;2024-01-25T01:25:44;98311.59;;;0.56;100.00
73105;BME280;61296;50.526;30.792;2024-01-25T01:41:19;98279.03;;;0.65;100.00
73105;BME280;61296;50.526;30.792;2024-01-25T01:56:53;98226.81;;;0.64;100.00
73105;BME280;61296;50.526;30.792;2024-01-25T02:12:25;98260.91;;;0.93;100.00
73105;BME280;61296;50.526;30.792;2024-01-25T02:27:59;98144.34;;;0.46;100.00
73105;BME280;61296;50.526;30.792;2024-01-25T02:43:32;98206.75;;;1.05;100.00
73105;BME280;61296;50.526;30.792;2024-01-25T02:59:05;98207.41;;;1.30;100.00
73105;BME280;61296;50.526;30.792;2024-01-25T03:14:37;98170.34;;;1.19;100.00
73105;BME280;61296;50.526;30.792;2024-01-25T03:30:11;98120.91;;;1.22;100.00
73105;BME280;61296;50.526;30.792;2024-01-25T03:45:43;98143.81;;;1.40;100.00
73105;BME280;61296;50.526;30.792;2024-01-25T04:01:16;98197.78;;;1.92;100.00
73105;BME280;61296;50.526;30.792;2024-01-25T04:16:49;98166.63;;;1.86;100.00
73105;BME280;61296;50.526;30.792;2024-01-25T04:32:22;98168.31;;;1.91;100.00
73105;BME280;61296;50.526;30.792;2024-01-25T04:47:55;98092.00;;;1.41;100.00
73105;BME280;61296;50.526;30.792;2024-01-25T05:03:28;98172.38;;;2.16;100.00
73105;BME280;61296;50.526;30.792;2024-01-25T05:19:01;98162.66;;;2.31;100.00
73105;BME280;61296;50.526;30.792;2024-01-25T05:34:34;98079.41;;;1.65;100.00
73105;BME280;61296;50.526;30.792;2024-01-25T05:50:08;98070.06;;;1.62;100.00
73105;BME280;61296;50.526;30.792;2024-01-25T06:05:41;98145.13;;;2.28;100.00
73105;BME280;61296;50.526;30.792;2024-01-25T06:21:14;98142.47;;;2.13;100.00
73105;BME280;61296;50.526;30.792;2024-01-25T06:36:47;98164.28;;;2.36;100.00
73105;BME280;61296;50.526;30.792;2024-01-25T06:52:20;98020.31;;;1.55;100.00
73105;BME280;61296;50.526;30.792;2024-01-25T07:07:53;98097.16;;;2.13;100.00
73105;BME280;61296;50.526;30.792;2024-01-25T07:23:26;98162.81;;;2.57;100.00
73105;BME280;61296;50.526;30.792;2024-01-25T07:38:59;98145.56;;;2.66;100.00
73105;BME280;61296;50.526;30.792;2024-01-25T07:54:32;98116.47;;;2.47;100.00
73105;BME280;61296;50.526;30.792;2024-01-25T08:10:06;98150.06;;;2.77;100.00
73105;BME280;61296;50.526;30.792;2024-01-25T08:25:38;98061.38;;;2.08;100.00
73105;BME280;61296;50.526;30.792;2024-01-25T08:41:12;98089.91;;;2.56;100.00
73105;BME280;61296;50.526;30.792;2024-01-25T08:56:47;98112.81;;;2.58;100.00
73105;BME280;61296;50.526;30.792;2024-01-25T09:12:20;98136.53;;;2.81;100.00
73105;BME280;61296;50.526;30.792;2024-01-25T09:27:56;98062.63;;;2.49;100.00
73105;BME280;61296;50.526;30.792;2024-01-25T09:43:30;97990.09;;;2.07;100.00
73105;BME280;61296;50.526;30.792;2024-01-25T09:59:04;97997.91;;;2.09;100.00
73105;BME280;61296;50.526;30.792;2024-01-25T10:14:37;98084.03;;;2.93;100.00
73105;BME280;61296;50.526;30.792;2024-01-25T10:30:11;98026.91;;;2.66;100.00
73105;BME280;61296;50.526;30.792;2024-01-25T10:45:45;98014.31;;;2.77;100.00
73105;BME280;61296;50.526;30.792;2024-01-25T11:01:17;98099.88;;;3.33;100.00
73105;BME280;61296;50.526;30.792;2024-01-25T11:16:50;98038.53;;;3.09;100.00
73105;BME280;61296;50.526;30.792;2024-01-25T11:32:23;98059.72;;;3.23;100.00
73105;BME280;61296;50.526;30.792;2024-01-25T11:47:56;98075.66;;;3.47;100.00
73105;BME280;61296;50.526;30.792;2024-01-25T12:03:29;98072.72;;;3.82;100.00
73105;BME280;61296;50.526;30.792;2024-01-25T12:19:02;98090.50;;;3.76;100.00
73105;BME280;61296;50.526;30.792;2024-01-25T12:34:35;98075.88;;;3.61;100.00
73105;BME280;61296;50.526;30.792;2024-01-25T12:50:11;98101.25;;;3.69;100.00
73105;BME280;61296;50.526;30.792;2024-01-25T13:05:44;98083.81;;;3.47;100.00
73105;BME280;61296;50.526;30.792;2024-01-25T13:21:17;98106.53;;;3.58;100.00
73105;BME280;61296;50.526;30.792;2024-01-25T13:36:52;98085.50;;;3.55;100.00
73105;BME280;61296;50.526;30.792;2024-01-25T13:52:24;98031.06;;;3.02;100.00
73105;BME280;61296;50.526;30.792;2024-01-25T14:07:57;98114.25;;;3.56;100.00
73105;BME280;61296;50.526;30.792;2024-01-25T14:23:32;98094.88;;;3.35;100.00
73105;BME280;61296;50.526;30.792;2024-01-25T14:39:04;98107.03;;;3.22;100.00
73105;BME280;61296;50.526;30.792;2024-01-25T14:54:37;98122.28;;;3.26;100.00
73105;BME280;61296;50.526;30.792;2024-01-25T15:10:10;98128.59;;;3.11;100.00
73105;BME280;61296;50.526;30.792;2024-01-25T15:25:44;98075.69;;;2.43;100.00
73105;BME280;61296;50.526;30.792;2024-01-25T15:41:20;98140.28;;;2.73;100.00
73105;BME280;61296;50.526;30.792;2024-01-25T15:56:54;98163.84;;;2.69;100.00
73105;BME280;61296;50.526;30.792;2024-01-25T16:12:26;98169.34;;;2.37;100.00
73105;BME280;61296;50.526;30.792;2024-01-25T16:28:00;98174.53;;;2.26;100.00
73105;BME280;61296;50.526;30.792;2024-01-25T16:43:33;98093.78;;;1.85;100.00
73105;BME280;61296;50.526;30.792;2024-01-25T16:59:06;98119.22;;;1.96;100.00
73105;BME280;61296;50.526;30.792;2024-01-25T17:14:40;98211.53;;;2.50;100.00
73105;BME280;61296;50.526;30.792;2024-01-25T17:30:14;98137.09;;;1.81;100.00
73105;BME280;61296;50.526;30.792;2024-01-25T17:45:47;98208.25;;;2.25;100.00
73105;BME280;61296;50.526;30.792;2024-01-25T18:01:20;98195.28;;;2.19;100.00
73105;BME280;61296;50.526;30.792;2024-01-25T18:16:53;98137.44;;;1.80;100.00
73105;BME280;61296;50.526;30.792;2024-01-25T18:32:26;98204.25;;;2.19;100.00
73105;BME280;61296;50.526;30.792;2024-01-25T18:47:59;98220.94;;;2.21;100.00
73105;BME280;61296;50.526;30.792;2024-01-25T19:03:34;98249.97;;;2.37;100.00
73105;BME280;61296;50.526;30.792;2024-01-25T19:19:06;98226.44;;;2.25;100.00
73105;BME280;61296;50.526;30.792;2024-01-25T19:34:39;98261.53;;;2.34;100.00
73105;BME280;61296;50.526;30.792;2024-01-25T19:50:12;98248.69;;;2.30;100.00
73105;BME280;61296;50.526;30.792;2024-01-25T20:05:46;98260.81;;;2.37;100.00
73105;BME280;61296;50.526;30.792;2024-01-25T20:21:18;98127.13;;;1.38;100.00
73105;BME280;61296;50.526;30.792;2024-01-25T20:36:51;98257.69;;;2.35;100.00
73105;BME280;61296;50.526;30.792;2024-01-25T20:52:24;98273.16;;;2.18;100.00
73105;BME280;61296;50.526;30.792;2024-01-25T21:07:58;98267.84;;;2.06;100.00
73105;BME280;61296;50.526;30.792;2024-01-25T21:23:30;98269.91;;;1.97;100.00
73105;BME280;61296;50.526;30.792;2024-01-25T21:39:03;98264.50;;;1.81;100.00
73105;BME280;61296;50.526;30.792;2024-01-25T21:54:36;98293.97;;;1.83;100.00
73105;BME280;61296;50.526;30.792;2024-01-25T22:10:09;98317.31;;;1.87;100.00
73105;BME280;61296;50.526;30.792;2024-01-25T22:25:42;98322.28;;;1.85;100.00
73105;BME280;61296;50.526;30.792;2024-01-25T22:41:15;98303.75;;;1.43;100.00
73105;BME280;61296;50.526;30.792;2024-01-25T22:56:48;98333.31;;;1.49;100.00
73105;BME280;61296;50.526;30.792;2024-01-25T23:12:21;98339.75;;;1.44;100.00
73105;BME280;61296;50.526;30.792;2024-01-25T23:27:54;98341.81;;;1.35;100.00
73105;BME280;61296;50.526;30.792;2024-01-25T23:43:27;98346.50;;;1.10;100.00
73105;BME280;61296;50.526;30.792;2024-01-25T23:59:00;98355.19;;;0.91;100.00
